createdAt,value
2023-03-26T00:00:58.912Z,100.00
2023-03-26T00:02:06.201Z,100.00
2023-03-26T00:03:09.335Z,100.00
2023-03-26T00:04:13.582Z,100.00
2023-03-26T00:05:17.888Z,100.00
2023-03-26T00:06:22.105Z,100.00
2023-03-26T00:07:26.338Z,100.00
2023-03-26T00:08:30.526Z,100.00
2023-03-26T00:09:34.766Z,100.00
2023-03-26T00:10:38.980Z,100.00
2023-03-26T00:11:43.314Z,100.00
2023-03-26T00:12:47.571Z,100.00
2023-03-26T00:13:51.770Z,100.00
2023-03-26T00:14:55.990Z,100.00
2023-03-26T00:16:00.244Z,100.00
2023-03-26T00:17:04.601Z,100.00
2023-03-26T00:18:08.794Z,100.00
2023-03-26T00:19:12.944Z,100.00
2023-03-26T00:20:17.291Z,100.00
2023-03-26T00:21:21.492Z,100.00
2023-03-26T00:22:25.704Z,100.00
2023-03-26T00:23:30.081Z,100.00
2023-03-26T00:24:34.199Z,100.00
2023-03-26T00:25:38.444Z,100.00
2023-03-26T00:26:45.671Z,100.00
2023-03-26T00:27:48.838Z,100.00
2023-03-26T00:28:53.071Z,100.00
2023-03-26T00:29:57.251Z,100.00
2023-03-26T00:31:01.493Z,100.00
2023-03-26T00:32:05.615Z,100.00
2023-03-26T00:33:15.891Z,100.00
2023-03-26T00:34:18.900Z,100.00
2023-03-26T00:35:22.865Z,100.00
2023-03-26T00:36:27.328Z,100.00
2023-03-26T00:37:31.460Z,100.00
2023-03-26T00:38:35.675Z,100.00
2023-03-26T00:39:39.886Z,100.00
2023-03-26T00:40:44.014Z,100.00
2023-03-26T00:41:48.288Z,100.00
2023-03-26T00:42:52.496Z,100.00
2023-03-26T00:43:56.820Z,100.00
2023-03-26T00:45:00.999Z,100.00
2023-03-26T00:46:05.275Z,100.00
2023-03-26T00:47:09.598Z,100.00
2023-03-26T00:48:13.739Z,100.00
2023-03-26T00:49:17.971Z,100.00
2023-03-26T00:50:22.183Z,100.00
2023-03-26T00:51:26.430Z,100.00
2023-03-26T00:52:30.784Z,100.00
2023-03-26T00:53:34.997Z,100.00
2023-03-26T00:54:39.228Z,100.00
2023-03-26T00:55:43.478Z,100.00
2023-03-26T00:56:47.828Z,100.00
2023-03-26T00:57:51.924Z,100.00
2023-03-26T00:58:56.246Z,100.00
2023-03-26T01:00:00.298Z,100.00
2023-03-26T01:01:04.646Z,100.00
2023-03-26T01:02:08.832Z,100.00
2023-03-26T01:03:21.839Z,100.00
2023-03-26T01:04:17.355Z,100.00
2023-03-26T01:05:21.465Z,100.00
2023-03-26T01:06:25.681Z,100.00
2023-03-26T01:07:29.859Z,100.00
2023-03-26T01:08:34.211Z,100.00
2023-03-26T01:09:38.371Z,100.00
2023-03-26T01:10:42.610Z,100.00
2023-03-26T01:11:46.831Z,100.00
2023-03-26T01:12:51.048Z,100.00
2023-03-26T01:13:55.253Z,100.00
2023-03-26T01:14:59.483Z,100.00
2023-03-26T01:16:03.754Z,100.00
2023-03-26T01:17:07.948Z,100.00
2023-03-26T01:18:26.393Z,100.00
2023-03-26T01:19:29.483Z,100.00
2023-03-26T01:20:33.637Z,100.00
2023-03-26T01:21:37.955Z,100.00
2023-03-26T01:22:42.127Z,100.00
2023-03-26T01:23:46.462Z,100.00
2023-03-26T01:24:50.610Z,100.00
2023-03-26T01:25:55.024Z,100.00
2023-03-26T01:26:58.955Z,100.00
2023-03-26T01:28:03.253Z,100.00
2023-03-26T01:29:07.486Z,100.00
2023-03-26T01:30:11.684Z,100.00
2023-03-26T01:31:15.853Z,100.00
2023-03-26T01:32:20.144Z,100.00
2023-03-26T01:33:24.378Z,100.00
2023-03-26T01:34:28.532Z,100.00
2023-03-26T01:35:32.863Z,100.00
2023-03-26T01:36:37.037Z,100.00
2023-03-26T01:37:55.267Z,100.00
2023-03-26T01:38:59.382Z,100.00
2023-03-26T01:40:02.563Z,100.00
2023-03-26T01:41:06.895Z,100.00
2023-03-26T01:42:10.985Z,100.00
2023-03-26T01:43:15.285Z,100.00
2023-03-26T01:44:19.545Z,100.00
2023-03-26T01:45:23.767Z,100.00
2023-03-26T01:46:28.071Z,100.00
2023-03-26T01:47:32.345Z,100.00
2023-03-26T01:48:36.520Z,100.00
2023-03-26T01:49:40.760Z,100.00
2023-03-26T01:50:44.998Z,100.00
2023-03-26T01:51:49.220Z,100.00
2023-03-26T01:52:53.453Z,100.00
2023-03-26T01:53:57.682Z,100.00
2023-03-26T01:55:01.889Z,100.00
2023-03-26T01:56:06.083Z,100.00
2023-03-26T01:57:10.276Z,100.00
2023-03-26T01:58:14.505Z,100.00
2023-03-26T01:59:18.817Z,100.00
2023-03-26T02:00:23.068Z,100.00
2023-03-26T02:01:27.366Z,100.00
2023-03-26T02:02:31.625Z,100.00
2023-03-26T02:03:35.761Z,100.00
2023-03-26T02:04:39.980Z,100.00
2023-03-26T02:05:44.162Z,100.00
2023-03-26T02:06:48.405Z,100.00
2023-03-26T02:07:52.623Z,100.00
2023-03-26T02:08:56.833Z,100.00
2023-03-26T02:10:01.149Z,100.00
2023-03-26T02:11:05.410Z,100.00
2023-03-26T02:12:09.554Z,100.00
2023-03-26T02:13:13.814Z,100.00
2023-03-26T02:14:18.004Z,100.00
2023-03-26T02:15:22.210Z,100.00
2023-03-26T02:16:26.559Z,100.00
2023-03-26T02:17:30.606Z,100.00
2023-03-26T02:18:34.839Z,100.00
2023-03-26T02:19:39.045Z,100.00
2023-03-26T02:20:43.275Z,100.00
2023-03-26T02:21:47.544Z,100.00
2023-03-26T02:22:51.787Z,100.00
2023-03-26T02:23:56.150Z,100.00
2023-03-26T02:25:00.217Z,100.00
2023-03-26T02:26:04.542Z,100.00
2023-03-26T02:27:08.812Z,100.00
2023-03-26T02:28:13.052Z,100.00
2023-03-26T02:29:17.259Z,100.00
2023-03-26T02:30:21.410Z,100.00
2023-03-26T02:31:25.657Z,100.00
2023-03-26T02:32:29.906Z,100.00
2023-03-26T02:33:34.071Z,100.00
2023-03-26T02:34:38.306Z,100.00
2023-03-26T02:35:42.531Z,100.00
2023-03-26T02:36:46.709Z,100.00
2023-03-26T02:39:18.234Z,100.00
2023-03-26T02:40:22.464Z,100.00
2023-03-26T02:41:26.604Z,100.00
2023-03-26T02:42:30.817Z,100.00
2023-03-26T02:43:35.047Z,100.00
2023-03-26T02:44:39.321Z,100.00
2023-03-26T02:45:43.649Z,100.00
2023-03-26T02:46:47.894Z,100.00
2023-03-26T02:47:52.294Z,100.00
2023-03-26T02:48:56.299Z,100.00
2023-03-26T02:50:00.547Z,100.00
2023-03-26T02:51:04.781Z,100.00
2023-03-26T02:52:09.006Z,100.00
2023-03-26T02:53:13.217Z,100.00
2023-03-26T02:54:17.403Z,100.00
2023-03-26T02:55:21.722Z,100.00
2023-03-26T02:56:25.853Z,100.00
2023-03-26T02:57:30.105Z,100.00
2023-03-26T02:58:34.421Z,100.00
2023-03-26T02:59:38.640Z,100.00
2023-03-26T03:00:42.866Z,100.00
2023-03-26T03:01:47.189Z,100.00
2023-03-26T03:02:51.305Z,100.00
2023-03-26T03:03:55.550Z,100.00
2023-03-26T03:04:59.797Z,100.00
2023-03-26T03:06:03.978Z,100.00
2023-03-26T03:07:11.185Z,100.00
2023-03-26T03:08:14.520Z,100.00
2023-03-26T03:09:18.792Z,100.00
2023-03-26T03:10:22.967Z,100.00
2023-03-26T03:11:27.195Z,100.00
2023-03-26T03:12:31.426Z,100.00
2023-03-26T03:13:35.663Z,100.00
2023-03-26T03:14:39.947Z,100.00
2023-03-26T03:15:44.159Z,100.00
2023-03-26T03:16:48.351Z,100.00
2023-03-26T03:17:52.610Z,100.00
2023-03-26T03:18:58.114Z,100.00
2023-03-26T03:20:01.114Z,100.00
2023-03-26T03:21:05.300Z,100.00
2023-03-26T03:22:09.535Z,100.00
2023-03-26T03:23:13.755Z,100.00
2023-03-26T03:24:17.983Z,100.00
2023-03-26T03:25:22.296Z,100.00
2023-03-26T03:26:26.459Z,100.00
2023-03-26T03:27:30.662Z,100.00
2023-03-26T03:28:34.863Z,100.00
2023-03-26T03:29:39.137Z,100.00
2023-03-26T03:30:43.373Z,100.00
2023-03-26T03:31:47.555Z,100.00
2023-03-26T03:32:51.866Z,100.00
2023-03-26T03:33:56.056Z,100.00
2023-03-26T03:35:00.248Z,100.00
2023-03-26T03:36:04.578Z,100.00
2023-03-26T03:37:08.728Z,100.00
2023-03-26T03:38:13.046Z,100.00
2023-03-26T03:39:17.250Z,100.00
2023-03-26T03:40:21.566Z,100.00
2023-03-26T03:41:25.717Z,100.00
2023-03-26T03:42:30.037Z,100.00
2023-03-26T03:43:34.239Z,100.00
2023-03-26T03:44:38.373Z,100.00
2023-03-26T03:45:42.653Z,100.00
2023-03-26T03:46:46.877Z,100.00
2023-03-26T03:47:51.198Z,100.00
2023-03-26T03:48:55.307Z,100.00
2023-03-26T03:49:59.748Z,100.00
2023-03-26T03:51:03.920Z,100.00
2023-03-26T03:52:08.182Z,100.00
2023-03-26T03:53:15.414Z,100.00
2023-03-26T03:54:18.702Z,100.00
2023-03-26T03:55:23.042Z,100.00
2023-03-26T03:56:27.224Z,100.00
2023-03-26T03:57:31.560Z,100.00
2023-03-26T03:58:35.697Z,100.00
2023-03-26T03:59:47.496Z,100.00
2023-03-26T04:00:44.085Z,100.00
2023-03-26T04:01:48.352Z,100.00
2023-03-26T04:02:52.645Z,100.00
2023-03-26T04:03:56.811Z,100.00
2023-03-26T04:05:00.906Z,100.00
2023-03-26T04:06:05.193Z,100.00
2023-03-26T04:07:23.427Z,100.00
2023-03-26T04:08:26.322Z,100.00
2023-03-26T04:09:30.492Z,100.00
2023-03-26T04:10:34.671Z,100.00
2023-03-26T04:11:38.921Z,100.00
2023-03-26T04:12:43.215Z,100.00
2023-03-26T04:13:53.534Z,100.00
2023-03-26T04:14:56.328Z,100.00
2023-03-26T04:16:00.561Z,100.00
2023-03-26T04:17:04.708Z,100.00
2023-03-26T04:18:08.945Z,100.00
2023-03-26T04:19:13.192Z,100.00
2023-03-26T04:20:17.443Z,100.00
2023-03-26T04:21:21.614Z,100.00
2023-03-26T04:22:25.820Z,100.00
2023-03-26T04:23:30.053Z,100.00
2023-03-26T04:24:34.211Z,100.00
2023-03-26T04:25:38.445Z,100.00
2023-03-26T04:26:42.672Z,100.00
2023-03-26T04:27:46.898Z,100.00
2023-03-26T04:28:51.094Z,100.00
2023-03-26T04:29:55.337Z,100.00
2023-03-26T04:30:59.619Z,100.00
2023-03-26T04:32:03.844Z,100.00
2023-03-26T04:33:08.132Z,100.00
2023-03-26T04:34:12.246Z,100.00
2023-03-26T04:35:16.638Z,100.00
2023-03-26T04:36:20.778Z,100.00
2023-03-26T04:37:24.996Z,100.00
2023-03-26T04:38:29.215Z,100.00
2023-03-26T04:39:33.467Z,100.00
2023-03-26T04:40:37.682Z,100.00
2023-03-26T04:41:41.896Z,100.00
2023-03-26T04:42:46.348Z,100.00
2023-03-26T04:43:50.314Z,100.00
2023-03-26T04:44:54.664Z,100.00
2023-03-26T04:45:58.806Z,100.00
2023-03-26T04:47:03.264Z,100.00
2023-03-26T04:48:07.209Z,100.00
2023-03-26T04:49:11.432Z,100.00
2023-03-26T04:50:15.730Z,100.00
2023-03-26T04:51:20.065Z,100.00
2023-03-26T04:52:24.209Z,100.00
2023-03-26T04:53:28.426Z,100.00
2023-03-26T04:54:32.693Z,100.00
2023-03-26T04:55:36.925Z,100.00
2023-03-26T04:56:41.158Z,100.00
2023-03-26T04:57:45.317Z,100.00
2023-03-26T04:58:49.618Z,100.00
2023-03-26T04:59:53.832Z,100.00
2023-03-26T05:00:58.146Z,100.00
2023-03-26T05:02:02.337Z,100.00
2023-03-26T05:03:06.569Z,100.00
2023-03-26T05:04:10.841Z,100.00
2023-03-26T05:05:31.057Z,100.00
2023-03-26T05:06:34.377Z,100.00
2023-03-26T05:07:38.412Z,100.00
2023-03-26T05:08:42.665Z,100.00
2023-03-26T05:09:46.851Z,100.00
2023-03-26T05:10:51.097Z,100.00
2023-03-26T05:11:55.311Z,100.00
2023-03-26T05:12:59.635Z,100.00
2023-03-26T05:14:03.845Z,100.00
2023-03-26T05:15:08.141Z,100.00
2023-03-26T05:16:12.331Z,100.00
2023-03-26T05:17:16.619Z,100.00
2023-03-26T05:18:20.941Z,100.00
2023-03-26T05:19:25.196Z,100.00
2023-03-26T05:20:29.385Z,100.00
2023-03-26T05:21:33.598Z,100.00
2023-03-26T05:22:38.289Z,100.00
2023-03-26T05:23:42.048Z,100.00
2023-03-26T05:24:46.348Z,100.00
2023-03-26T05:25:50.529Z,100.00
2023-03-26T05:26:54.723Z,100.00
2023-03-26T05:27:58.931Z,100.00
2023-03-26T05:29:03.177Z,100.00
2023-03-26T05:30:07.361Z,100.00
2023-03-26T05:31:11.606Z,100.00
2023-03-26T05:32:15.949Z,100.00
2023-03-26T05:33:20.247Z,100.00
2023-03-26T05:34:24.438Z,100.00
2023-03-26T05:35:28.684Z,100.00
2023-03-26T05:36:32.916Z,100.00
2023-03-26T05:37:37.181Z,100.00
2023-03-26T05:38:41.418Z,100.00
2023-03-26T05:39:45.584Z,100.00
2023-03-26T05:40:49.813Z,100.00
2023-03-26T05:41:54.036Z,100.00
2023-03-26T05:42:58.380Z,100.00
2023-03-26T05:44:02.556Z,100.00
2023-03-26T05:45:06.826Z,100.00
2023-03-26T05:46:10.960Z,100.00
2023-03-26T05:47:15.141Z,100.00
2023-03-26T05:48:19.330Z,100.00
2023-03-26T05:49:23.514Z,100.00
2023-03-26T05:50:27.734Z,100.00
2023-03-26T05:51:31.932Z,100.00
2023-03-26T05:52:36.214Z,100.00
2023-03-26T05:53:40.346Z,100.00
2023-03-26T05:54:44.604Z,100.00
2023-03-26T05:55:48.794Z,100.00
2023-03-26T05:56:53.057Z,100.00
2023-03-26T05:57:57.229Z,100.00
2023-03-26T05:59:01.455Z,100.00
2023-03-26T06:00:05.697Z,100.00
2023-03-26T06:01:09.888Z,100.00
2023-03-26T06:02:14.201Z,100.00
2023-03-26T06:03:18.603Z,100.00
2023-03-26T06:04:22.810Z,100.00
2023-03-26T06:05:26.878Z,100.00
2023-03-26T06:06:33.063Z,100.00
2023-03-26T06:07:35.337Z,100.00
2023-03-26T06:08:39.458Z,100.00
2023-03-26T06:09:43.714Z,100.00
2023-03-26T06:10:47.967Z,100.00
2023-03-26T06:11:52.156Z,100.00
2023-03-26T06:12:56.361Z,100.00
2023-03-26T06:14:00.565Z,100.00
2023-03-26T06:15:04.754Z,100.00
2023-03-26T06:16:08.969Z,100.00
2023-03-26T06:17:13.114Z,100.00
2023-03-26T06:18:17.352Z,100.00
2023-03-26T06:19:21.596Z,100.00
2023-03-26T06:20:25.830Z,100.00
2023-03-26T06:21:30.041Z,100.00
2023-03-26T06:22:34.264Z,100.00
2023-03-26T06:23:38.563Z,100.00
2023-03-26T06:24:42.764Z,100.00
2023-03-26T06:25:47.062Z,100.00
2023-03-26T06:26:51.300Z,100.00
2023-03-26T06:27:55.545Z,100.00
2023-03-26T06:28:59.860Z,100.00
2023-03-26T06:30:04.031Z,100.00
2023-03-26T06:31:08.369Z,100.00
2023-03-26T06:32:19.501Z,100.00
2023-03-26T06:33:16.773Z,100.00
2023-03-26T06:34:21.003Z,100.00
2023-03-26T06:35:25.181Z,100.00
2023-03-26T06:36:29.439Z,100.00
2023-03-26T06:37:33.703Z,100.00
2023-03-26T06:38:37.913Z,100.00
2023-03-26T06:39:42.255Z,100.00
2023-03-26T06:40:46.433Z,100.00
2023-03-26T06:41:50.727Z,100.00
2023-03-26T06:43:08.805Z,100.00
2023-03-26T06:43:59.117Z,100.00
2023-03-26T06:45:03.358Z,100.00
2023-03-26T06:46:07.620Z,100.00
2023-03-26T06:47:11.738Z,100.00
2023-03-26T06:48:15.992Z,100.00
2023-03-26T06:49:20.220Z,100.00
2023-03-26T06:50:24.520Z,100.00
2023-03-26T06:51:28.667Z,100.00
2023-03-26T06:52:32.953Z,100.00
2023-03-26T06:53:37.128Z,100.00
2023-03-26T06:54:41.327Z,100.00
2023-03-26T06:55:45.564Z,100.00
2023-03-26T06:56:49.809Z,100.00
2023-03-26T06:57:53.987Z,100.00
2023-03-26T06:58:58.216Z,100.00
2023-03-26T07:00:02.455Z,100.00
2023-03-26T07:01:06.664Z,100.00
2023-03-26T07:02:10.817Z,100.00
2023-03-26T07:03:15.092Z,100.00
2023-03-26T07:04:19.360Z,100.00
2023-03-26T07:05:23.472Z,100.00
2023-03-26T07:06:27.731Z,100.00
2023-03-26T07:07:31.947Z,100.00
2023-03-26T07:08:36.147Z,100.00
2023-03-26T07:09:40.338Z,100.00
2023-03-26T07:10:44.476Z,100.00
2023-03-26T07:11:48.738Z,100.00
2023-03-26T07:12:52.985Z,100.00
2023-03-26T07:13:57.220Z,100.00
2023-03-26T07:15:01.448Z,100.00
2023-03-26T07:16:05.668Z,100.00
2023-03-26T07:17:10.067Z,100.00
2023-03-26T07:18:14.250Z,100.00
2023-03-26T07:19:18.408Z,100.00
2023-03-26T07:20:22.706Z,100.00
2023-03-26T07:21:26.964Z,100.00
2023-03-26T07:22:31.220Z,100.00
2023-03-26T07:23:35.427Z,100.00
2023-03-26T07:24:39.620Z,100.00
2023-03-26T07:25:43.833Z,100.00
2023-03-26T07:26:48.066Z,100.00
2023-03-26T07:27:52.333Z,100.00
2023-03-26T07:29:05.163Z,100.00
2023-03-26T07:30:00.866Z,100.00
2023-03-26T07:31:05.193Z,100.00
2023-03-26T07:32:09.558Z,100.00
2023-03-26T07:33:13.595Z,100.00
2023-03-26T07:34:17.832Z,100.00
2023-03-26T07:35:22.051Z,100.00
2023-03-26T07:36:26.259Z,100.00
2023-03-26T07:37:30.607Z,100.00
2023-03-26T07:38:34.811Z,100.00
2023-03-26T07:39:38.875Z,100.00
2023-03-26T07:40:43.340Z,100.00
2023-03-26T07:41:47.442Z,100.00
2023-03-26T07:42:51.687Z,100.00
2023-03-26T07:43:56.009Z,100.00
2023-03-26T07:45:00.165Z,100.00
2023-03-26T07:46:04.550Z,100.00
2023-03-26T07:47:08.808Z,100.00
2023-03-26T07:48:12.913Z,100.00
2023-03-26T07:49:17.138Z,100.00
2023-03-26T07:50:21.514Z,100.00
2023-03-26T07:51:25.675Z,100.00
2023-03-26T07:52:29.878Z,100.00
2023-03-26T07:53:34.097Z,100.00
2023-03-26T07:54:38.458Z,100.00
2023-03-26T07:55:42.709Z,100.00
2023-03-26T07:56:47.046Z,100.00
2023-03-26T07:57:51.099Z,100.00
2023-03-26T07:58:55.359Z,100.00
2023-03-26T07:59:59.587Z,100.00
2023-03-26T08:01:03.807Z,100.00
2023-03-26T08:02:08.008Z,100.00
2023-03-26T08:03:12.399Z,100.00
2023-03-26T08:04:25.589Z,100.00
2023-03-26T08:05:20.837Z,100.00
2023-03-26T08:06:25.073Z,100.00
2023-03-26T08:07:29.272Z,100.00
2023-03-26T08:08:33.593Z,100.00
2023-03-26T08:09:37.745Z,100.00
2023-03-26T08:10:42.340Z,100.00
2023-03-26T08:12:00.331Z,100.00
2023-03-26T08:13:03.339Z,100.00
2023-03-26T08:14:07.446Z,100.00
2023-03-26T08:15:14.659Z,100.00
2023-03-26T08:16:18.105Z,100.00
2023-03-26T08:17:22.311Z,100.00
2023-03-26T08:18:26.411Z,100.00
2023-03-26T08:19:30.624Z,100.00
2023-03-26T08:20:34.892Z,100.00
2023-03-26T08:21:39.099Z,100.00
2023-03-26T08:22:43.295Z,100.00
2023-03-26T08:23:50.543Z,100.00
2023-03-26T08:24:51.818Z,100.00
2023-03-26T08:25:56.118Z,100.00
2023-03-26T08:28:26.629Z,100.00
2023-03-26T08:29:30.747Z,100.00
2023-03-26T08:30:35.064Z,100.00
2023-03-26T08:31:39.397Z,99.99
2023-03-26T08:32:43.510Z,99.92
2023-03-26T08:33:47.748Z,99.86
2023-03-26T08:34:52.046Z,99.78
2023-03-26T08:35:56.383Z,99.83
2023-03-26T08:37:00.559Z,99.75
2023-03-26T08:38:04.748Z,99.52
2023-03-26T08:39:09.026Z,99.44
2023-03-26T08:40:13.237Z,99.39
2023-03-26T08:41:17.498Z,98.99
2023-03-26T08:42:21.647Z,98.62
2023-03-26T08:43:26.057Z,98.23
2023-03-26T08:44:30.216Z,98.08
2023-03-26T08:45:34.425Z,98.00
2023-03-26T08:46:38.743Z,97.99
2023-03-26T08:47:42.797Z,97.83
2023-03-26T08:48:47.021Z,97.77
2023-03-26T08:49:51.295Z,97.90
2023-03-26T08:50:55.697Z,97.66
2023-03-26T08:51:59.683Z,97.45
2023-03-26T08:54:31.303Z,97.37
2023-03-26T08:55:35.406Z,97.39
2023-03-26T08:56:39.716Z,97.41
2023-03-26T08:57:43.834Z,97.06
2023-03-26T08:58:48.184Z,96.78
2023-03-26T08:59:52.323Z,96.34
2023-03-26T09:00:56.770Z,96.13
2023-03-26T09:02:00.842Z,95.73
2023-03-26T09:03:05.005Z,95.09
2023-03-26T09:04:09.329Z,94.75
2023-03-26T09:05:27.622Z,94.76
2023-03-26T09:06:30.670Z,94.59
2023-03-26T09:07:34.826Z,94.55
2023-03-26T09:08:39.077Z,94.67
2023-03-26T09:09:43.288Z,94.52
2023-03-26T09:10:47.606Z,94.58
2023-03-26T09:11:51.869Z,94.49
2023-03-26T09:12:56.110Z,94.40
2023-03-26T09:14:00.421Z,94.14
2023-03-26T09:15:04.709Z,93.91
2023-03-26T09:16:08.865Z,93.44
2023-03-26T09:17:13.139Z,93.24
2023-03-26T09:18:17.437Z,93.02
2023-03-26T09:19:21.611Z,92.84
2023-03-26T09:20:25.920Z,92.42
2023-03-26T09:21:30.132Z,92.22
2023-03-26T09:22:34.325Z,91.86
2023-03-26T09:23:38.580Z,91.82
2023-03-26T09:24:42.766Z,91.60
2023-03-26T09:25:47.029Z,91.34
2023-03-26T09:26:51.352Z,91.34
2023-03-26T09:27:55.498Z,90.99
2023-03-26T09:28:59.849Z,90.77
2023-03-26T09:30:04.116Z,90.72
2023-03-26T09:31:08.355Z,90.62
2023-03-26T09:32:12.525Z,90.49
2023-03-26T09:33:16.734Z,90.28
2023-03-26T09:34:21.062Z,89.83
2023-03-26T09:35:25.358Z,89.37
2023-03-26T09:36:29.532Z,89.20
2023-03-26T09:37:33.818Z,88.93
2023-03-26T09:38:38.117Z,88.75
2023-03-26T09:39:42.309Z,88.83
2023-03-26T09:40:46.520Z,88.83
2023-03-26T09:41:50.753Z,88.80
2023-03-26T09:42:55.009Z,88.75
2023-03-26T09:43:59.367Z,88.57
2023-03-26T09:45:03.535Z,88.24
2023-03-26T09:46:07.878Z,87.81
2023-03-26T09:47:11.986Z,87.53
2023-03-26T09:48:16.219Z,86.76
2023-03-26T09:49:20.535Z,86.35
2023-03-26T09:50:24.708Z,85.89
2023-03-26T09:51:28.940Z,85.75
2023-03-26T09:52:33.250Z,85.95
2023-03-26T09:53:37.450Z,85.81
2023-03-26T09:54:41.649Z,85.61
2023-03-26T09:55:45.916Z,85.17
2023-03-26T09:56:50.128Z,84.95
2023-03-26T09:57:54.364Z,84.81
2023-03-26T09:58:58.535Z,84.60
2023-03-26T10:00:02.927Z,84.07
2023-03-26T10:01:07.109Z,84.00
2023-03-26T10:02:11.372Z,83.46
2023-03-26T10:03:15.670Z,83.55
2023-03-26T10:04:19.859Z,83.82
2023-03-26T10:05:24.087Z,83.96
2023-03-26T10:06:28.315Z,84.23
2023-03-26T10:07:32.616Z,84.51
2023-03-26T10:08:36.749Z,85.10
2023-03-26T10:09:41.013Z,84.86
2023-03-26T10:10:45.222Z,84.64
2023-03-26T10:11:49.526Z,84.23
2023-03-26T10:12:59.768Z,84.49
2023-03-26T10:13:57.989Z,84.86
2023-03-26T10:15:02.104Z,84.94
2023-03-26T10:16:06.505Z,84.99
2023-03-26T10:17:10.774Z,84.87
2023-03-26T10:18:27.341Z,85.12
2023-03-26T10:19:19.360Z,84.78
2023-03-26T10:20:30.585Z,84.33
2023-03-26T10:21:33.425Z,84.51
2023-03-26T10:22:37.584Z,84.54
2023-03-26T10:23:41.800Z,84.69
2023-03-26T10:24:46.077Z,84.45
2023-03-26T10:25:50.241Z,84.26
2023-03-26T10:27:10.123Z,83.89
2023-03-26T10:27:58.849Z,83.44
2023-03-26T10:29:03.119Z,82.77
2023-03-26T10:30:07.325Z,81.87
2023-03-26T10:31:11.618Z,81.07
2023-03-26T10:32:15.795Z,80.77
2023-03-26T10:33:20.104Z,80.01
2023-03-26T10:34:29.317Z,79.79
2023-03-26T10:35:42.667Z,79.53
2023-03-26T10:36:45.802Z,79.79
2023-03-26T10:37:50.033Z,80.11
2023-03-26T10:38:54.227Z,80.21
2023-03-26T10:39:58.535Z,80.13
2023-03-26T10:41:05.667Z,80.03
2023-03-26T10:42:09.082Z,79.85
2023-03-26T10:43:13.356Z,79.60
2023-03-26T10:44:17.606Z,80.09
2023-03-26T10:45:21.828Z,80.68
2023-03-26T10:46:26.140Z,81.05
2023-03-26T10:47:30.356Z,81.26
2023-03-26T10:48:34.518Z,80.71
2023-03-26T10:49:38.860Z,80.57
2023-03-26T10:50:43.088Z,80.74
2023-03-26T10:51:53.510Z,81.06
2023-03-26T10:52:56.317Z,81.21
2023-03-26T10:54:14.541Z,81.55
2023-03-26T10:55:31.686Z,81.25
2023-03-26T10:56:34.745Z,81.46
2023-03-26T10:57:39.002Z,81.25
2023-03-26T10:58:48.502Z,80.96
2023-03-26T10:59:47.494Z,80.36
2023-03-26T11:00:57.755Z,80.43
2023-03-26T11:03:27.640Z,80.91
2023-03-26T11:04:31.922Z,80.97
2023-03-26T11:05:36.246Z,80.89
2023-03-26T11:06:40.352Z,80.94
2023-03-26T11:07:44.703Z,80.49
2023-03-26T11:08:48.920Z,80.13
2023-03-26T11:09:53.147Z,78.80
2023-03-26T11:10:57.681Z,78.54
2023-03-26T11:12:01.696Z,78.61
2023-03-26T11:13:05.844Z,78.81
2023-03-26T11:14:10.197Z,78.98
2023-03-26T11:15:14.441Z,78.28
2023-03-26T11:16:18.836Z,78.00
2023-03-26T11:17:40.153Z,78.36
2023-03-26T11:18:27.324Z,77.69
2023-03-26T11:19:31.552Z,77.37
2023-03-26T11:20:35.782Z,76.81
2023-03-26T11:21:40.156Z,76.09
2023-03-26T11:22:44.428Z,76.40
2023-03-26T11:23:48.651Z,76.79
2023-03-26T11:24:52.976Z,76.90
2023-03-26T11:25:57.291Z,76.99
2023-03-26T11:27:15.230Z,77.10
2023-03-26T11:28:05.729Z,77.49
2023-03-26T11:29:31.685Z,78.10
2023-03-26T11:30:14.274Z,78.59
2023-03-26T11:31:18.519Z,78.46
2023-03-26T11:32:22.812Z,78.25
2023-03-26T11:33:27.096Z,78.17
2023-03-26T11:34:31.374Z,77.69
2023-03-26T11:35:40.874Z,76.86
2023-03-26T11:36:39.883Z,76.20
2023-03-26T11:37:44.198Z,76.27
2023-03-26T11:38:48.473Z,76.72
2023-03-26T11:39:55.128Z,76.94
2023-03-26T11:40:57.353Z,77.08
2023-03-26T11:42:01.227Z,77.44
2023-03-26T11:43:05.642Z,77.81
2023-03-26T11:44:09.833Z,77.59
2023-03-26T11:45:14.078Z,76.56
2023-03-26T11:46:18.363Z,76.29
2023-03-26T11:47:22.676Z,76.29
2023-03-26T11:48:26.972Z,75.06
2023-03-26T11:49:31.254Z,74.28
2023-03-26T11:50:35.468Z,74.70
2023-03-26T11:51:39.722Z,75.08
2023-03-26T11:52:44.934Z,75.06
2023-03-26T11:53:48.271Z,74.73
2023-03-26T11:54:52.513Z,74.83
2023-03-26T11:55:56.781Z,74.91
2023-03-26T11:57:05.803Z,74.53
2023-03-26T11:58:05.320Z,74.02
2023-03-26T11:59:09.629Z,74.42
2023-03-26T12:00:13.877Z,74.22
2023-03-26T12:01:21.154Z,74.38
2023-03-26T12:02:24.659Z,74.92
2023-03-26T12:03:28.758Z,75.14
2023-03-26T12:04:33.043Z,74.41
2023-03-26T12:05:37.299Z,73.89
2023-03-26T12:06:41.538Z,73.17
2023-03-26T12:07:45.805Z,73.14
2023-03-26T12:08:53.049Z,72.76
2023-03-26T12:09:56.423Z,73.30
2023-03-26T12:11:00.766Z,73.41
2023-03-26T12:12:05.114Z,72.35
2023-03-26T12:13:10.300Z,71.78
2023-03-26T12:14:14.326Z,71.06
2023-03-26T12:15:18.645Z,70.67
2023-03-26T12:16:22.833Z,69.83
2023-03-26T12:17:41.178Z,69.44
2023-03-26T12:18:44.143Z,69.84
2023-03-26T12:19:48.466Z,70.14
2023-03-26T12:20:52.911Z,69.92
2023-03-26T12:21:56.968Z,69.38
2023-03-26T12:23:01.217Z,68.79
2023-03-26T12:24:05.695Z,68.47
2023-03-26T12:25:09.740Z,68.47
2023-03-26T12:26:14.078Z,68.94
2023-03-26T12:27:18.286Z,69.44
2023-03-26T12:28:22.552Z,69.55
2023-03-26T12:29:26.820Z,70.31
2023-03-26T12:30:31.062Z,70.83
2023-03-26T12:31:41.570Z,71.51
2023-03-26T12:32:46.830Z,69.51
2023-03-26T12:33:54.671Z,68.27
2023-03-26T12:34:57.607Z,68.10
2023-03-26T12:36:01.825Z,67.75
2023-03-26T12:37:06.165Z,67.29
2023-03-26T12:38:10.374Z,67.23
2023-03-26T12:39:16.715Z,66.83
2023-03-26T12:40:22.096Z,67.26
2023-03-26T12:44:42.694Z,67.07
2023-03-26T12:44:48.305Z,67.88
2023-03-26T12:44:53.052Z,67.98
2023-03-26T12:44:53.177Z,67.83
2023-03-26T12:45:40.436Z,67.77
2023-03-26T12:46:44.611Z,67.34
2023-03-26T12:48:00.392Z,67.20
2023-03-26T12:48:53.229Z,66.81
2023-03-26T12:49:57.406Z,68.21
2023-03-26T12:51:01.690Z,67.67
2023-03-26T12:52:08.196Z,66.97
2023-03-26T12:53:10.245Z,66.99
2023-03-26T12:54:14.505Z,66.86
2023-03-26T12:55:18.763Z,66.82
2023-03-26T12:56:23.010Z,66.25
2023-03-26T12:57:27.296Z,65.66
2023-03-26T12:58:31.493Z,65.59
2023-03-26T12:59:35.840Z,65.82
2023-03-26T13:00:40.197Z,66.17
2023-03-26T13:01:44.489Z,66.71
2023-03-26T13:02:48.837Z,66.74
2023-03-26T13:03:53.018Z,66.35
2023-03-26T13:05:05.089Z,66.70
2023-03-26T13:06:01.426Z,67.07
2023-03-26T13:07:05.720Z,67.26
2023-03-26T13:08:09.998Z,67.47
2023-03-26T13:09:14.234Z,67.55
2023-03-26T13:10:18.489Z,68.25
2023-03-26T13:11:22.729Z,68.63
2023-03-26T13:12:27.070Z,69.36
2023-03-26T13:13:31.280Z,69.58
2023-03-26T13:14:35.533Z,69.19
2023-03-26T13:15:39.776Z,69.13
2023-03-26T13:16:44.082Z,68.94
2023-03-26T13:17:48.326Z,69.12
2023-03-26T13:18:52.601Z,69.25
2023-03-26T13:19:56.900Z,69.54
2023-03-26T13:21:01.122Z,68.64
2023-03-26T13:22:05.378Z,68.13
2023-03-26T13:23:09.629Z,67.52
2023-03-26T13:24:13.846Z,67.22
2023-03-26T13:25:18.108Z,67.13
2023-03-26T13:26:22.345Z,66.66
2023-03-26T13:27:40.482Z,66.60
2023-03-26T13:28:43.624Z,66.98
2023-03-26T13:29:47.823Z,66.91
2023-03-26T13:30:52.194Z,67.12
2023-03-26T13:31:56.448Z,67.15
2023-03-26T13:33:00.724Z,67.61
2023-03-26T13:34:04.883Z,67.62
2023-03-26T13:35:09.316Z,67.13
2023-03-26T13:36:23.364Z,66.54
2023-03-26T13:37:17.721Z,66.72
2023-03-26T13:38:22.099Z,66.93
2023-03-26T13:39:26.326Z,67.02
2023-03-26T13:40:30.562Z,66.78